sensor_id;sensor_type;location;lat;lon;timestamp;P1;durP1;ratioP1;P2;durP2;ratioP2
4102;SDS011;2065;49.790;9.620;2022-10-17T00:00:37;10.50;;;3.37;;
4102;SDS011;2065;49.790;9.620;2022-10-17T00:03:06;2.70;;;2.40;;
4102;SDS011;2065;49.790;9.620;2022-10-17T00:05:37;2.93;;;2.40;;
4102;SDS011;2065;49.790;9.620;2022-10-17T00:08:05;1.90;;;1.80;;
4102;SDS011;2065;49.790;9.620;2022-10-17T00:10:32;2.80;;;2.23;;
4102;SDS011;2065;49.790;9.620;2022-10-17T00:12:59;4.20;;;2.33;;
4102;SDS011;2065;49.790;9.620;2022-10-17T00:15:26;2.07;;;1.90;;
4102;SDS011;2065;49.790;9.620;2022-10-17T00:17:53;2.47;;;2.27;;
4102;SDS011;2065;49.790;9.620;2022-10-17T00:20:22;2.67;;;2.00;;
4102;SDS011;2065;49.790;9.620;2022-10-17T00:22:49;2.10;;;2.00;;
4102;SDS011;2065;49.790;9.620;2022-10-17T00:25:17;2.30;;;2.00;;
4102;SDS011;2065;49.790;9.620;2022-10-17T00:27:44;2.83;;;2.63;;
4102;SDS011;2065;49.790;9.620;2022-10-17T00:30:14;2.17;;;2.07;;
4102;SDS011;2065;49.790;9.620;2022-10-17T00:32:42;3.03;;;2.83;;
4102;SDS011;2065;49.790;9.620;2022-10-17T00:35:09;6.40;;;2.60;;
4102;SDS011;2065;49.790;9.620;2022-10-17T00:37:37;5.73;;;2.87;;
4102;SDS011;2065;49.790;9.620;2022-10-17T00:40:05;7.40;;;2.23;;
4102;SDS011;2065;49.790;9.620;2022-10-17T00:42:33;9.47;;;2.97;;
4102;SDS011;2065;49.790;9.620;2022-10-17T00:45:18;23.77;;;3.50;;
4102;SDS011;2065;49.790;9.620;2022-10-17T00:47:47;99.00;;;7.90;;
4102;SDS011;2065;49.790;9.620;2022-10-17T00:50:21;30.50;;;3.87;;
4102;SDS011;2065;49.790;9.620;2022-10-17T00:52:51;8.93;;;3.17;;
4102;SDS011;2065;49.790;9.620;2022-10-17T00:55:22;55.93;;;5.40;;
4102;SDS011;2065;49.790;9.620;2022-10-17T00:57:53;48.43;;;5.40;;
4102;SDS011;2065;49.790;9.620;2022-10-17T01:00:21;47.00;;;4.47;;
4102;SDS011;2065;49.790;9.620;2022-10-17T01:02:50;20.07;;;3.13;;
4102;SDS011;2065;49.790;9.620;2022-10-17T01:05:18;151.43;;;7.20;;
4102;SDS011;2065;49.790;9.620;2022-10-17T01:07:46;101.43;;;6.20;;
4102;SDS011;2065;49.790;9.620;2022-10-17T01:10:17;27.60;;;3.10;;
4102;SDS011;2065;49.790;9.620;2022-10-17T01:12:51;12.87;;;2.80;;
4102;SDS011;2065;49.790;9.620;2022-10-17T01:15:29;13.00;;;2.87;;
4102;SDS011;2065;49.790;9.620;2022-10-17T01:18:10;37.40;;;3.57;;
4102;SDS011;2065;49.790;9.620;2022-10-17T01:20:52;23.17;;;3.03;;
4102;SDS011;2065;49.790;9.620;2022-10-17T01:23:32;10.27;;;2.70;;
4102;SDS011;2065;49.790;9.620;2022-10-17T01:26:24;5.30;;;2.53;;
4102;SDS011;2065;49.790;9.620;2022-10-17T01:29:04;51.17;;;4.20;;
4102;SDS011;2065;49.790;9.620;2022-10-17T01:31:54;5.07;;;2.50;;
4102;SDS011;2065;49.790;9.620;2022-10-17T01:34:26;18.13;;;3.27;;
4102;SDS011;2065;49.790;9.620;2022-10-17T01:36:58;26.20;;;3.63;;
4102;SDS011;2065;49.790;9.620;2022-10-17T01:39:32;47.70;;;4.90;;
4102;SDS011;2065;49.790;9.620;2022-10-17T01:42:09;23.33;;;3.90;;
4102;SDS011;2065;49.790;9.620;2022-10-17T01:44:42;65.57;;;5.40;;
4102;SDS011;2065;49.790;9.620;2022-10-17T01:47:18;35.70;;;3.90;;
4102;SDS011;2065;49.790;9.620;2022-10-17T01:49:47;86.67;;;6.43;;
4102;SDS011;2065;49.790;9.620;2022-10-17T01:52:18;58.20;;;5.53;;
4102;SDS011;2065;49.790;9.620;2022-10-17T01:54:49;37.10;;;4.57;;
4102;SDS011;2065;49.790;9.620;2022-10-17T01:57:20;46.77;;;4.57;;
4102;SDS011;2065;49.790;9.620;2022-10-17T01:59:54;73.77;;;7.17;;
4102;SDS011;2065;49.790;9.620;2022-10-17T02:02:23;22.47;;;3.00;;
4102;SDS011;2065;49.790;9.620;2022-10-17T02:04:52;26.73;;;3.70;;
4102;SDS011;2065;49.790;9.620;2022-10-17T02:07:22;204.27;;;9.77;;
4102;SDS011;2065;49.790;9.620;2022-10-17T02:09:49;21.63;;;3.00;;
4102;SDS011;2065;49.790;9.620;2022-10-17T02:12:37;3.80;;;2.37;;
4102;SDS011;2065;49.790;9.620;2022-10-17T02:15:18;13.23;;;2.50;;
4102;SDS011;2065;49.790;9.620;2022-10-17T02:18:09;19.00;;;3.10;;
4102;SDS011;2065;49.790;9.620;2022-10-17T02:20:46;16.33;;;2.80;;
4102;SDS011;2065;49.790;9.620;2022-10-17T02:23:19;8.80;;;2.13;;
4102;SDS011;2065;49.790;9.620;2022-10-17T02:25:54;5.00;;;2.90;;
4102;SDS011;2065;49.790;9.620;2022-10-17T02:28:28;42.23;;;3.87;;
4102;SDS011;2065;49.790;9.620;2022-10-17T02:30:59;64.63;;;4.47;;
4102;SDS011;2065;49.790;9.620;2022-10-17T02:33:33;76.13;;;4.43;;
4102;SDS011;2065;49.790;9.620;2022-10-17T02:36:08;55.17;;;5.50;;
4102;SDS011;2065;49.790;9.620;2022-10-17T02:38:39;32.40;;;3.90;;
4102;SDS011;2065;49.790;9.620;2022-10-17T02:41:11;40.43;;;3.83;;
4102;SDS011;2065;49.790;9.620;2022-10-17T02:43:41;4.83;;;2.10;;
4102;SDS011;2065;49.790;9.620;2022-10-17T02:46:11;7.50;;;2.60;;
4102;SDS011;2065;49.790;9.620;2022-10-17T02:48:47;10.63;;;3.17;;
4102;SDS011;2065;49.790;9.620;2022-10-17T02:51:20;44.50;;;4.93;;
4102;SDS011;2065;49.790;9.620;2022-10-17T02:53:52;10.80;;;2.90;;
4102;SDS011;2065;49.790;9.620;2022-10-17T02:56:26;134.87;;;9.27;;
4102;SDS011;2065;49.790;9.620;2022-10-17T02:58:56;11.33;;;2.90;;
4102;SDS011;2065;49.790;9.620;2022-10-17T03:01:25;45.97;;;5.07;;
4102;SDS011;2065;49.790;9.620;2022-10-17T03:04:04;39.77;;;3.70;;
4102;SDS011;2065;49.790;9.620;2022-10-17T03:06:33;21.50;;;3.10;;
4102;SDS011;2065;49.790;9.620;2022-10-17T03:09:00;28.03;;;3.97;;
4102;SDS011;2065;49.790;9.620;2022-10-17T03:11:28;8.90;;;2.90;;
4102;SDS011;2065;49.790;9.620;2022-10-17T03:13:55;25.07;;;2.93;;
4102;SDS011;2065;49.790;9.620;2022-10-17T03:16:22;20.37;;;3.27;;
4102;SDS011;2065;49.790;9.620;2022-10-17T03:18:49;15.17;;;2.70;;
4102;SDS011;2065;49.790;9.620;2022-10-17T03:21:18;10.47;;;3.00;;
4102;SDS011;2065;49.790;9.620;2022-10-17T03:23:46;8.77;;;2.70;;
4102;SDS011;2065;49.790;9.620;2022-10-17T03:26:14;6.40;;;2.10;;
4102;SDS011;2065;49.790;9.620;2022-10-17T03:28:41;18.67;;;2.70;;
4102;SDS011;2065;49.790;9.620;2022-10-17T03:31:09;34.30;;;3.30;;
4102;SDS011;2065;49.790;9.620;2022-10-17T03:33:39;18.60;;;3.40;;
4102;SDS011;2065;49.790;9.620;2022-10-17T03:36:06;20.43;;;3.63;;
4102;SDS011;2065;49.790;9.620;2022-10-17T03:38:36;7.00;;;3.13;;
4102;SDS011;2065;49.790;9.620;2022-10-17T03:41:04;12.17;;;3.13;;
4102;SDS011;2065;49.790;9.620;2022-10-17T03:43:32;136.13;;;7.60;;
4102;SDS011;2065;49.790;9.620;2022-10-17T03:45:59;16.77;;;2.70;;
4102;SDS011;2065;49.790;9.620;2022-10-17T03:48:28;31.90;;;4.30;;
4102;SDS011;2065;49.790;9.620;2022-10-17T03:50:57;17.07;;;2.77;;
4102;SDS011;2065;49.790;9.620;2022-10-17T03:53:26;21.90;;;3.23;;
4102;SDS011;2065;49.790;9.620;2022-10-17T03:55:56;23.40;;;3.10;;
4102;SDS011;2065;49.790;9.620;2022-10-17T03:58:35;75.93;;;5.40;;
4102;SDS011;2065;49.790;9.620;2022-10-17T04:01:03;10.17;;;3.60;;
4102;SDS011;2065;49.790;9.620;2022-10-17T04:03:30;63.40;;;5.17;;
4102;SDS011;2065;49.790;9.620;2022-10-17T04:05:57;32.27;;;3.67;;
4102;SDS011;2065;49.790;9.620;2022-10-17T04:08:25;10.47;;;2.80;;
4102;SDS011;2065;49.790;9.620;2022-10-17T04:11:08;1.80;;;1.70;;
4102;SDS011;2065;49.790;9.620;2022-10-17T04:13:36;3.63;;;1.63;;
4102;SDS011;2065;49.790;9.620;2022-10-17T04:16:06;1.53;;;1.43;;
4102;SDS011;2065;49.790;9.620;2022-10-17T04:18:41;1.70;;;1.60;;
4102;SDS011;2065;49.790;9.620;2022-10-17T04:21:09;1.40;;;1.30;;
4102;SDS011;2065;49.790;9.620;2022-10-17T04:23:36;6.53;;;2.00;;
4102;SDS011;2065;49.790;9.620;2022-10-17T04:26:15;4.90;;;2.30;;
4102;SDS011;2065;49.790;9.620;2022-10-17T04:28:42;1.93;;;1.30;;
4102;SDS011;2065;49.790;9.620;2022-10-17T04:31:10;2.30;;;2.10;;
4102;SDS011;2065;49.790;9.620;2022-10-17T04:33:58;10.73;;;4.83;;
4102;SDS011;2065;49.790;9.620;2022-10-17T04:36:25;2.33;;;1.60;;
4102;SDS011;2065;49.790;9.620;2022-10-17T04:38:53;2.13;;;1.93;;
4102;SDS011;2065;49.790;9.620;2022-10-17T04:41:21;3.07;;;2.77;;
4102;SDS011;2065;49.790;9.620;2022-10-17T04:43:50;22.40;;;2.90;;
4102;SDS011;2065;49.790;9.620;2022-10-17T04:46:19;3.33;;;2.67;;
4102;SDS011;2065;49.790;9.620;2022-10-17T04:48:47;21.73;;;3.43;;
4102;SDS011;2065;49.790;9.620;2022-10-17T04:51:15;76.37;;;6.00;;
4102;SDS011;2065;49.790;9.620;2022-10-17T04:54:06;9.80;;;2.70;;
4102;SDS011;2065;49.790;9.620;2022-10-17T04:56:36;39.23;;;5.17;;
4102;SDS011;2065;49.790;9.620;2022-10-17T04:59:03;19.80;;;3.60;;
4102;SDS011;2065;49.790;9.620;2022-10-17T05:01:30;39.70;;;4.00;;
4102;SDS011;2065;49.790;9.620;2022-10-17T05:03:58;18.30;;;3.37;;
4102;SDS011;2065;49.790;9.620;2022-10-17T05:06:26;13.87;;;3.60;;
4102;SDS011;2065;49.790;9.620;2022-10-17T05:09:22;11.87;;;2.77;;
4102;SDS011;2065;49.790;9.620;2022-10-17T05:11:51;48.73;;;4.80;;
4102;SDS011;2065;49.790;9.620;2022-10-17T05:14:18;45.57;;;5.90;;
4102;SDS011;2065;49.790;9.620;2022-10-17T05:16:46;25.30;;;4.53;;
4102;SDS011;2065;49.790;9.620;2022-10-17T05:19:13;11.20;;;3.53;;
4102;SDS011;2065;49.790;9.620;2022-10-17T05:21:45;16.23;;;3.20;;
4102;SDS011;2065;49.790;9.620;2022-10-17T05:24:12;79.97;;;5.83;;
4102;SDS011;2065;49.790;9.620;2022-10-17T05:26:40;65.77;;;5.13;;
4102;SDS011;2065;49.790;9.620;2022-10-17T05:29:09;12.93;;;3.47;;
4102;SDS011;2065;49.790;9.620;2022-10-17T05:31:41;195.03;;;11.93;;
4102;SDS011;2065;49.790;9.620;2022-10-17T05:34:08;53.57;;;5.30;;
4102;SDS011;2065;49.790;9.620;2022-10-17T05:36:36;105.50;;;10.53;;
4102;SDS011;2065;49.790;9.620;2022-10-17T05:39:04;241.70;;;10.73;;
4102;SDS011;2065;49.790;9.620;2022-10-17T05:41:33;166.37;;;9.10;;
4102;SDS011;2065;49.790;9.620;2022-10-17T05:44:00;57.57;;;5.27;;
4102;SDS011;2065;49.790;9.620;2022-10-17T05:46:38;132.60;;;9.07;;
4102;SDS011;2065;49.790;9.620;2022-10-17T05:49:05;167.77;;;9.73;;
4102;SDS011;2065;49.790;9.620;2022-10-17T05:51:35;111.80;;;9.30;;
4102;SDS011;2065;49.790;9.620;2022-10-17T05:54:03;22.33;;;4.00;;
4102;SDS011;2065;49.790;9.620;2022-10-17T05:56:31;11.77;;;4.23;;
4102;SDS011;2065;49.790;9.620;2022-10-17T05:58:59;10.30;;;3.57;;
4102;SDS011;2065;49.790;9.620;2022-10-17T06:01:51;32.53;;;3.93;;
4102;SDS011;2065;49.790;9.620;2022-10-17T06:04:18;49.20;;;4.23;;
4102;SDS011;2065;49.790;9.620;2022-10-17T06:06:46;3.47;;;3.17;;
4102;SDS011;2065;49.790;9.620;2022-10-17T06:09:14;8.20;;;2.73;;
4102;SDS011;2065;49.790;9.620;2022-10-17T06:11:44;5.10;;;2.80;;
4102;SDS011;2065;49.790;9.620;2022-10-17T06:14:12;5.83;;;2.87;;
4102;SDS011;2065;49.790;9.620;2022-10-17T06:16:40;3.50;;;3.20;;
4102;SDS011;2065;49.790;9.620;2022-10-17T06:19:09;10.40;;;3.03;;
4102;SDS011;2065;49.790;9.620;2022-10-17T06:21:37;5.27;;;2.60;;
4102;SDS011;2065;49.790;9.620;2022-10-17T06:24:12;7.60;;;3.20;;
4102;SDS011;2065;49.790;9.620;2022-10-17T06:26:41;14.07;;;3.27;;
4102;SDS011;2065;49.790;9.620;2022-10-17T06:29:11;18.57;;;2.90;;
4102;SDS011;2065;49.790;9.620;2022-10-17T06:31:45;4.53;;;2.93;;
4102;SDS011;2065;49.790;9.620;2022-10-17T06:34:15;3.83;;;3.40;;
4102;SDS011;2065;49.790;9.620;2022-10-17T06:36:42;5.83;;;3.50;;
4102;SDS011;2065;49.790;9.620;2022-10-17T06:39:10;10.07;;;4.10;;
4102;SDS011;2065;49.790;9.620;2022-10-17T06:41:46;7.77;;;3.00;;
4102;SDS011;2065;49.790;9.620;2022-10-17T06:44:16;20.13;;;3.80;;
4102;SDS011;2065;49.790;9.620;2022-10-17T06:46:53;30.63;;;4.07;;
4102;SDS011;2065;49.790;9.620;2022-10-17T06:49:22;7.77;;;2.93;;
4102;SDS011;2065;49.790;9.620;2022-10-17T06:51:56;9.00;;;3.63;;
4102;SDS011;2065;49.790;9.620;2022-10-17T06:54:42;42.53;;;4.53;;
4102;SDS011;2065;49.790;9.620;2022-10-17T06:57:42;39.63;;;6.97;;
4102;SDS011;2065;49.790;9.620;2022-10-17T07:00:41;13.40;;;4.53;;
4102;SDS011;2065;49.790;9.620;2022-10-17T07:03:10;14.50;;;4.80;;
4102;SDS011;2065;49.790;9.620;2022-10-17T07:05:38;88.43;;;7.30;;
4102;SDS011;2065;49.790;9.620;2022-10-17T07:08:06;49.80;;;6.87;;
4102;SDS011;2065;49.790;9.620;2022-10-17T07:10:36;9.40;;;6.13;;
4102;SDS011;2065;49.790;9.620;2022-10-17T07:13:05;19.03;;;3.93;;
4102;SDS011;2065;49.790;9.620;2022-10-17T07:15:35;23.80;;;5.50;;
4102;SDS011;2065;49.790;9.620;2022-10-17T07:18:02;57.37;;;5.83;;
4102;SDS011;2065;49.790;9.620;2022-10-17T07:20:29;24.27;;;5.10;;
4102;SDS011;2065;49.790;9.620;2022-10-17T07:22:58;49.50;;;6.73;;
4102;SDS011;2065;49.790;9.620;2022-10-17T07:25:26;8.20;;;4.13;;
4102;SDS011;2065;49.790;9.620;2022-10-17T07:27:58;18.43;;;4.60;;
4102;SDS011;2065;49.790;9.620;2022-10-17T07:30:27;37.47;;;6.60;;
4102;SDS011;2065;49.790;9.620;2022-10-17T07:33:12;5.53;;;3.60;;
4102;SDS011;2065;49.790;9.620;2022-10-17T07:35:39;10.73;;;3.80;;
4102;SDS011;2065;49.790;9.620;2022-10-17T07:38:08;44.67;;;6.03;;
4102;SDS011;2065;49.790;9.620;2022-10-17T07:40:36;17.40;;;4.27;;
4102;SDS011;2065;49.790;9.620;2022-10-17T07:43:03;20.20;;;4.57;;
4102;SDS011;2065;49.790;9.620;2022-10-17T07:45:30;11.13;;;4.33;;
4102;SDS011;2065;49.790;9.620;2022-10-17T07:47:57;26.97;;;6.00;;
4102;SDS011;2065;49.790;9.620;2022-10-17T07:50:24;78.17;;;11.50;;
4102;SDS011;2065;49.790;9.620;2022-10-17T07:52:51;10.03;;;5.50;;
4102;SDS011;2065;49.790;9.620;2022-10-17T07:55:20;23.70;;;4.70;;
4102;SDS011;2065;49.790;9.620;2022-10-17T07:57:47;99.33;;;8.60;;
4102;SDS011;2065;49.790;9.620;2022-10-17T08:00:15;26.53;;;6.20;;
4102;SDS011;2065;49.790;9.620;2022-10-17T08:02:42;20.97;;;7.87;;
4102;SDS011;2065;49.790;9.620;2022-10-17T08:05:09;39.13;;;7.90;;
4102;SDS011;2065;49.790;9.620;2022-10-17T08:07:36;20.60;;;5.50;;
4102;SDS011;2065;49.790;9.620;2022-10-17T08:10:04;56.37;;;6.73;;
4102;SDS011;2065;49.790;9.620;2022-10-17T08:12:33;95.20;;;12.37;;
4102;SDS011;2065;49.790;9.620;2022-10-17T08:15:01;23.83;;;5.40;;
4102;SDS011;2065;49.790;9.620;2022-10-17T08:17:28;33.77;;;5.87;;
4102;SDS011;2065;49.790;9.620;2022-10-17T08:19:55;52.47;;;7.67;;
4102;SDS011;2065;49.790;9.620;2022-10-17T08:22:23;64.13;;;7.80;;
4102;SDS011;2065;49.790;9.620;2022-10-17T08:24:50;21.73;;;5.80;;
4102;SDS011;2065;49.790;9.620;2022-10-17T08:27:17;11.30;;;4.17;;
4102;SDS011;2065;49.790;9.620;2022-10-17T08:29:49;26.77;;;5.17;;
4102;SDS011;2065;49.790;9.620;2022-10-17T08:32:18;14.00;;;5.70;;
4102;SDS011;2065;49.790;9.620;2022-10-17T08:34:46;12.47;;;5.60;;
4102;SDS011;2065;49.790;9.620;2022-10-17T08:37:13;44.57;;;8.40;;
4102;SDS011;2065;49.790;9.620;2022-10-17T08:39:40;29.97;;;6.83;;
4102;SDS011;2065;49.790;9.620;2022-10-17T08:42:15;38.47;;;6.73;;
4102;SDS011;2065;49.790;9.620;2022-10-17T08:44:59;7.70;;;5.87;;
4102;SDS011;2065;49.790;9.620;2022-10-17T08:47:37;11.87;;;5.97;;
4102;SDS011;2065;49.790;9.620;2022-10-17T08:50:10;27.33;;;5.97;;
4102;SDS011;2065;49.790;9.620;2022-10-17T08:52:41;12.93;;;5.37;;
4102;SDS011;2065;49.790;9.620;2022-10-17T08:55:13;10.43;;;6.10;;
4102;SDS011;2065;49.790;9.620;2022-10-17T08:57:42;11.10;;;6.87;;
4102;SDS011;2065;49.790;9.620;2022-10-17T09:00:14;27.20;;;6.07;;
4102;SDS011;2065;49.790;9.620;2022-10-17T09:02:47;7.33;;;5.50;;
4102;SDS011;2065;49.790;9.620;2022-10-17T09:05:27;9.73;;;5.30;;
4102;SDS011;2065;49.790;9.620;2022-10-17T09:08:02;8.23;;;5.70;;
4102;SDS011;2065;49.790;9.620;2022-10-17T09:10:43;6.70;;;5.60;;
4102;SDS011;2065;49.790;9.620;2022-10-17T09:13:21;9.20;;;6.43;;
4102;SDS011;2065;49.790;9.620;2022-10-17T09:16:01;11.10;;;6.10;;
4102;SDS011;2065;49.790;9.620;2022-10-17T09:18:37;9.47;;;6.07;;
4102;SDS011;2065;49.790;9.620;2022-10-17T09:21:10;10.13;;;6.50;;
4102;SDS011;2065;49.790;9.620;2022-10-17T09:23:45;8.33;;;5.87;;
4102;SDS011;2065;49.790;9.620;2022-10-17T09:26:16;6.97;;;6.00;;
4102;SDS011;2065;49.790;9.620;2022-10-17T09:28:43;6.60;;;5.90;;
4102;SDS011;2065;49.790;9.620;2022-10-17T09:31:19;8.17;;;6.53;;
4102;SDS011;2065;49.790;9.620;2022-10-17T09:33:49;6.47;;;5.87;;
4102;SDS011;2065;49.790;9.620;2022-10-17T09:36:18;8.07;;;7.00;;
4102;SDS011;2065;49.790;9.620;2022-10-17T09:38:49;8.73;;;6.77;;
4102;SDS011;2065;49.790;9.620;2022-10-17T09:41:20;7.17;;;6.13;;
4102;SDS011;2065;49.790;9.620;2022-10-17T09:43:50;7.63;;;5.87;;
4102;SDS011;2065;49.790;9.620;2022-10-17T09:46:23;8.53;;;5.93;;
4102;SDS011;2065;49.790;9.620;2022-10-17T09:48:56;8.00;;;6.80;;
4102;SDS011;2065;49.790;9.620;2022-10-17T09:51:27;7.50;;;6.10;;
4102;SDS011;2065;49.790;9.620;2022-10-17T09:53:58;14.30;;;12.20;;
4102;SDS011;2065;49.790;9.620;2022-10-17T09:56:28;11.67;;;7.87;;
4102;SDS011;2065;49.790;9.620;2022-10-17T09:58:56;8.63;;;6.80;;
4102;SDS011;2065;49.790;9.620;2022-10-17T10:01:26;6.47;;;5.80;;
4102;SDS011;2065;49.790;9.620;2022-10-17T10:04:07;7.70;;;6.30;;
4102;SDS011;2065;49.790;9.620;2022-10-17T10:06:35;7.30;;;6.50;;
4102;SDS011;2065;49.790;9.620;2022-10-17T10:09:04;6.63;;;5.97;;
4102;SDS011;2065;49.790;9.620;2022-10-17T10:11:45;10.70;;;6.17;;
4102;SDS011;2065;49.790;9.620;2022-10-17T10:14:18;6.20;;;5.50;;
4102;SDS011;2065;49.790;9.620;2022-10-17T10:16:49;5.33;;;4.83;;
4102;SDS011;2065;49.790;9.620;2022-10-17T10:19:20;6.07;;;5.40;;
4102;SDS011;2065;49.790;9.620;2022-10-17T10:21:54;7.20;;;4.87;;
4102;SDS011;2065;49.790;9.620;2022-10-17T10:24:23;6.13;;;5.50;;
4102;SDS011;2065;49.790;9.620;2022-10-17T10:26:52;6.90;;;5.90;;
4102;SDS011;2065;49.790;9.620;2022-10-17T10:29:24;5.93;;;4.10;;
4102;SDS011;2065;49.790;9.620;2022-10-17T10:31:56;4.80;;;4.40;;
4102;SDS011;2065;49.790;9.620;2022-10-17T10:34:33;4.93;;;4.43;;
4102;SDS011;2065;49.790;9.620;2022-10-17T10:37:02;7.10;;;6.40;;
4102;SDS011;2065;49.790;9.620;2022-10-17T10:39:33;6.57;;;4.33;;
4102;SDS011;2065;49.790;9.620;2022-10-17T10:42:16;4.67;;;4.27;;
4102;SDS011;2065;49.790;9.620;2022-10-17T10:44:47;7.23;;;4.70;;
4102;SDS011;2065;49.790;9.620;2022-10-17T10:47:23;4.53;;;3.37;;
4102;SDS011;2065;49.790;9.620;2022-10-17T10:50:07;4.90;;;4.33;;
4102;SDS011;2065;49.790;9.620;2022-10-17T10:52:44;5.40;;;4.30;;
4102;SDS011;2065;49.790;9.620;2022-10-17T10:55:21;7.57;;;4.23;;
4102;SDS011;2065;49.790;9.620;2022-10-17T10:57:52;5.27;;;3.60;;
4102;SDS011;2065;49.790;9.620;2022-10-17T11:00:23;3.83;;;3.53;;
4102;SDS011;2065;49.790;9.620;2022-10-17T11:02:56;5.67;;;3.90;;
4102;SDS011;2065;49.790;9.620;2022-10-17T11:05:34;6.33;;;3.80;;
4102;SDS011;2065;49.790;9.620;2022-10-17T11:08:09;5.40;;;3.80;;
4102;SDS011;2065;49.790;9.620;2022-10-17T11:10:43;3.20;;;3.00;;
4102;SDS011;2065;49.790;9.620;2022-10-17T11:13:22;4.40;;;3.00;;
4102;SDS011;2065;49.790;9.620;2022-10-17T11:15:54;3.93;;;3.53;;
4102;SDS011;2065;49.790;9.620;2022-10-17T11:18:30;3.90;;;3.60;;
4102;SDS011;2065;49.790;9.620;2022-10-17T11:21:02;6.03;;;3.80;;
4102;SDS011;2065;49.790;9.620;2022-10-17T11:23:37;5.13;;;4.00;;
4102;SDS011;2065;49.790;9.620;2022-10-17T11:26:10;6.00;;;3.10;;
4102;SDS011;2065;49.790;9.620;2022-10-17T11:28:41;3.53;;;3.23;;
4102;SDS011;2065;49.790;9.620;2022-10-17T11:31:09;3.30;;;3.00;;
4102;SDS011;2065;49.790;9.620;2022-10-17T11:33:42;9.67;;;3.23;;
4102;SDS011;2065;49.790;9.620;2022-10-17T11:36:12;7.07;;;3.07;;
4102;SDS011;2065;49.790;9.620;2022-10-17T11:38:44;4.00;;;3.40;;
4102;SDS011;2065;49.790;9.620;2022-10-17T11:41:17;3.40;;;3.03;;
4102;SDS011;2065;49.790;9.620;2022-10-17T11:43:52;4.67;;;3.10;;
4102;SDS011;2065;49.790;9.620;2022-10-17T11:46:24;2.80;;;2.60;;
4102;SDS011;2065;49.790;9.620;2022-10-17T11:48:59;3.07;;;2.87;;
4102;SDS011;2065;49.790;9.620;2022-10-17T11:51:36;2.80;;;2.60;;
4102;SDS011;2065;49.790;9.620;2022-10-17T11:54:10;4.03;;;2.77;;
4102;SDS011;2065;49.790;9.620;2022-10-17T11:56:44;3.50;;;2.90;;
4102;SDS011;2065;49.790;9.620;2022-10-17T11:59:25;3.67;;;2.47;;
4102;SDS011;2065;49.790;9.620;2022-10-17T12:02:13;9.53;;;3.17;;
4102;SDS011;2065;49.790;9.620;2022-10-17T12:04:52;2.97;;;2.40;;
4102;SDS011;2065;49.790;9.620;2022-10-17T12:07:28;3.70;;;2.70;;
4102;SDS011;2065;49.790;9.620;2022-10-17T12:10:04;5.37;;;2.40;;
4102;SDS011;2065;49.790;9.620;2022-10-17T12:12:42;6.73;;;2.70;;
4102;SDS011;2065;49.790;9.620;2022-10-17T12:15:28;3.30;;;2.40;;
4102;SDS011;2065;49.790;9.620;2022-10-17T12:17:56;3.50;;;2.40;;
4102;SDS011;2065;49.790;9.620;2022-10-17T12:20:32;2.20;;;2.07;;
4102;SDS011;2065;49.790;9.620;2022-10-17T12:23:03;6.53;;;2.27;;
4102;SDS011;2065;49.790;9.620;2022-10-17T12:25:47;2.97;;;2.70;;
4102;SDS011;2065;49.790;9.620;2022-10-17T12:28:16;2.80;;;2.30;;
4102;SDS011;2065;49.790;9.620;2022-10-17T12:30:52;3.70;;;2.30;;
4102;SDS011;2065;49.790;9.620;2022-10-17T12:33:23;2.70;;;2.50;;
4102;SDS011;2065;49.790;9.620;2022-10-17T12:42:31;2.40;;;2.20;;
4102;SDS011;2065;49.790;9.620;2022-10-17T12:48:12;4.07;;;2.40;;
4102;SDS011;2065;49.790;9.620;2022-10-17T12:50:59;5.10;;;2.30;;
4102;SDS011;2065;49.790;9.620;2022-10-17T12:53:32;3.03;;;2.60;;
4102;SDS011;2065;49.790;9.620;2022-10-17T12:56:05;3.80;;;2.20;;
4102;SDS011;2065;49.790;9.620;2022-10-17T12:58:34;3.50;;;2.17;;
4102;SDS011;2065;49.790;9.620;2022-10-17T13:01:02;2.27;;;2.07;;
4102;SDS011;2065;49.790;9.620;2022-10-17T13:03:34;4.30;;;2.30;;
4102;SDS011;2065;49.790;9.620;2022-10-17T13:06:12;3.40;;;2.23;;
4102;SDS011;2065;49.790;9.620;2022-10-17T13:08:49;6.47;;;2.17;;
4102;SDS011;2065;49.790;9.620;2022-10-17T13:11:21;7.07;;;2.23;;
4102;SDS011;2065;49.790;9.620;2022-10-17T13:13:53;2.23;;;2.07;;
4102;SDS011;2065;49.790;9.620;2022-10-17T13:16:26;8.63;;;2.97;;
4102;SDS011;2065;49.790;9.620;2022-10-17T13:18:55;8.50;;;4.00;;
4102;SDS011;2065;49.790;9.620;2022-10-17T13:21:22;5.03;;;2.80;;
4102;SDS011;2065;49.790;9.620;2022-10-17T13:23:54;4.07;;;2.97;;
4102;SDS011;2065;49.790;9.620;2022-10-17T13:26:25;4.33;;;3.10;;
4102;SDS011;2065;49.790;9.620;2022-10-17T13:29:02;3.30;;;2.43;;
4102;SDS011;2065;49.790;9.620;2022-10-17T13:31:31;2.40;;;2.00;;
4102;SDS011;2065;49.790;9.620;2022-10-17T13:34:00;3.53;;;2.30;;
4102;SDS011;2065;49.790;9.620;2022-10-17T13:36:29;2.07;;;1.93;;
4102;SDS011;2065;49.790;9.620;2022-10-17T13:38:58;5.53;;;2.40;;
4102;SDS011;2065;49.790;9.620;2022-10-17T13:41:31;2.40;;;2.20;;
4102;SDS011;2065;49.790;9.620;2022-10-17T13:43:59;2.10;;;1.97;;
4102;SDS011;2065;49.790;9.620;2022-10-17T13:46:30;2.30;;;2.00;;
4102;SDS011;2065;49.790;9.620;2022-10-17T13:48:59;2.17;;;2.07;;
4102;SDS011;2065;49.790;9.620;2022-10-17T13:51:40;3.03;;;2.77;;
4102;SDS011;2065;49.790;9.620;2022-10-17T13:54:16;6.23;;;2.20;;
4102;SDS011;2065;49.790;9.620;2022-10-17T13:56:44;3.10;;;2.50;;
4102;SDS011;2065;49.790;9.620;2022-10-17T13:59:18;6.27;;;2.10;;
4102;SDS011;2065;49.790;9.620;2022-10-17T14:01:49;6.40;;;1.80;;
4102;SDS011;2065;49.790;9.620;2022-10-17T14:04:17;6.50;;;2.70;;
4102;SDS011;2065;49.790;9.620;2022-10-17T14:06:44;3.87;;;2.00;;
4102;SDS011;2065;49.790;9.620;2022-10-17T14:09:15;4.30;;;2.43;;
4102;SDS011;2065;49.790;9.620;2022-10-17T14:11:55;2.77;;;2.30;;
4102;SDS011;2065;49.790;9.620;2022-10-17T14:14:26;3.13;;;2.00;;
4102;SDS011;2065;49.790;9.620;2022-10-17T14:16:54;3.17;;;2.40;;
4102;SDS011;2065;49.790;9.620;2022-10-17T14:19:23;3.00;;;2.70;;
4102;SDS011;2065;49.790;9.620;2022-10-17T14:21:53;3.60;;;2.17;;
4102;SDS011;2065;49.790;9.620;2022-10-17T14:24:26;11.47;;;2.30;;
4102;SDS011;2065;49.790;9.620;2022-10-17T14:26:56;3.33;;;2.27;;
4102;SDS011;2065;49.790;9.620;2022-10-17T14:29:26;3.00;;;2.00;;
4102;SDS011;2065;49.790;9.620;2022-10-17T14:31:58;7.83;;;2.53;;
4102;SDS011;2065;49.790;9.620;2022-10-17T14:34:29;4.83;;;2.30;;
4102;SDS011;2065;49.790;9.620;2022-10-17T14:36:58;3.47;;;2.43;;
4102;SDS011;2065;49.790;9.620;2022-10-17T14:39:26;2.53;;;2.33;;
4102;SDS011;2065;49.790;9.620;2022-10-17T14:41:54;5.73;;;2.27;;
4102;SDS011;2065;49.790;9.620;2022-10-17T14:44:23;3.73;;;2.20;;
4102;SDS011;2065;49.790;9.620;2022-10-17T14:46:55;4.97;;;2.53;;
4102;SDS011;2065;49.790;9.620;2022-10-17T14:49:30;3.17;;;1.67;;
4102;SDS011;2065;49.790;9.620;2022-10-17T14:52:22;2.30;;;2.10;;
4102;SDS011;2065;49.790;9.620;2022-10-17T14:54:52;6.90;;;2.40;;
4102;SDS011;2065;49.790;9.620;2022-10-17T14:57:21;4.83;;;2.30;;
4102;SDS011;2065;49.790;9.620;2022-10-17T14:59:51;5.43;;;2.40;;
4102;SDS011;2065;49.790;9.620;2022-10-17T15:02:19;2.70;;;2.50;;
4102;SDS011;2065;49.790;9.620;2022-10-17T15:04:47;2.77;;;2.50;;
4102;SDS011;2065;49.790;9.620;2022-10-17T15:07:15;3.80;;;2.27;;
4102;SDS011;2065;49.790;9.620;2022-10-17T15:09:43;7.40;;;2.93;;
4102;SDS011;2065;49.790;9.620;2022-10-17T15:12:12;2.43;;;2.23;;
4102;SDS011;2065;49.790;9.620;2022-10-17T15:14:41;4.17;;;2.17;;
4102;SDS011;2065;49.790;9.620;2022-10-17T15:17:13;5.93;;;2.53;;
4102;SDS011;2065;49.790;9.620;2022-10-17T15:19:42;4.13;;;2.57;;
4102;SDS011;2065;49.790;9.620;2022-10-17T15:22:10;8.27;;;2.47;;
4102;SDS011;2065;49.790;9.620;2022-10-17T15:24:37;4.83;;;2.30;;
4102;SDS011;2065;49.790;9.620;2022-10-17T15:27:05;5.40;;;2.40;;
4102;SDS011;2065;49.790;9.620;2022-10-17T15:29:39;5.97;;;2.63;;
4102;SDS011;2065;49.790;9.620;2022-10-17T15:32:06;2.70;;;2.30;;
4102;SDS011;2065;49.790;9.620;2022-10-17T15:34:34;11.10;;;2.63;;
4102;SDS011;2065;49.790;9.620;2022-10-17T15:37:02;4.27;;;2.73;;
4102;SDS011;2065;49.790;9.620;2022-10-17T15:39:30;7.30;;;2.43;;
4102;SDS011;2065;49.790;9.620;2022-10-17T15:41:58;4.57;;;2.33;;
4102;SDS011;2065;49.790;9.620;2022-10-17T15:44:25;4.87;;;2.50;;